Stunt Ranch Reserve, Santa Monica Mtns, California Weather observations

Data are for 10 minute period ending at time listed.
 Day   Time   Solar   Ave.   Ave.  Ave.  Vector  Max.   Baro.   Total    
  of    of     Rad.   Air    Rel.  Wind   Wind   Wind  Press.  Precip.   
Year   Day            Temp.  Hum.  Speed  Dir.   Gust                    
2016   (PST)  Kw/m2    F      %     mph   deg.    mph    mb.     in.     
-------------------------------------------------------------------------
 147    0:00   0.00   52.6    82    0.5   134     1.8   970.9    0.00 
 147    0:10   0.00   51.8    83    0.5   132     1.8   970.9    0.00 
 147    0:20   0.00   51.3    84    1.7   191     2.8   970.9    0.00 
 147    0:30   0.00   51.5    84    0.8    21     3.1   970.9    0.00 
 147    0:40   0.00   50.9    84    1.3   186     3.2   970.5    0.00 
 147    0:50   0.00   51.1    86    0.5   287     2.5   970.5    0.00 
 147    1:00   0.00   50.8    86    1.3   214     2.6   970.5    0.00 
 147    1:10   0.00   50.7    86    1.0    80     3.1   970.5    0.00 
 147    1:20   0.00   50.3    88    0.1   122     1.3   970.5    0.00 
 147    1:30   0.00   50.6    88    0.4   159     1.6   970.5    0.00 
 147    1:40   0.00   50.8    88    0.0    48     0.8   970.5    0.00 
 147    1:50   0.00   50.6    88    0.3   222     1.7   970.5    0.00 
 147    2:00   0.00   50.4    88    0.4   244     1.3   970.5    0.00 
 147    2:10   0.00   49.9    89    2.4   133     4.9   970.5    0.00 
 147    2:20   0.00   50.1    89    1.0   166     2.9   970.2    0.00 
 147    2:30   0.00   49.5    89    0.6   142     2.4   970.2    0.00 
 147    2:40   0.00   50.2    89    0.8   140     2.3   970.2    0.00 
 147    2:50   0.00   50.5    89    0.9   197     2.5   970.2    0.00 
 147    3:00   0.00   49.8    88    2.0   139     3.6   970.2    0.00 
 147    3:10   0.00   49.9    89    1.9   127     3.1   970.2    0.00 
 147    3:20   0.00   49.7    88    3.2   105     6.1   969.9    0.00 
 147    3:30   0.00   49.8    89    1.6   140     4.5   969.9    0.00 
 147    3:40   0.00   49.6    89    2.1   267     3.8   969.9    0.00 
 147    3:50   0.00   49.5    90    1.6   238     3.1   970.2    0.00 
 147    4:00   0.00   49.7    89    0.8   173     2.0   970.2    0.00 
 147    4:10   0.00   49.8    90    1.5   214     3.5   970.2    0.00 
 147    4:20   0.00   50.3    90    1.3   278     2.6   970.5    0.00 
 147    4:30   0.00   50.2    90    1.1   127     2.2   970.5    0.00 
 147    4:40   0.00   50.4    91    1.5   176     2.4   970.5    0.00 
 147    4:50   0.01   50.4    91    0.6   211     1.8   970.5    0.00 
 147    5:00   0.01   50.3    91    1.0   204     2.3   970.5    0.00 
 147    5:10   0.02   50.3    91    1.5   148     3.3   970.9    0.00 
 147    5:20   0.03   50.0    92    1.7   178     3.3   970.9    0.00 
 147    5:30   0.04   51.0    92    0.9   249     2.2   971.2    0.00 
 147    5:40   0.04   51.3    91    1.5   208     2.4   971.2    0.00 
 147    5:50   0.05   52.2    90    1.1   197     2.6   971.2    0.00 
 147    6:00   0.06   52.9    89    2.0   139     3.1   971.6    0.00 
 147    6:10   0.07   53.7    87    2.1   102     5.5   971.6    0.00 
 147    6:20   0.09   54.5    84    2.0    70     3.7   971.6    0.00 
 147    6:30   0.10   54.7    82    0.9   297     2.6   971.9    0.00 
 147    6:40   0.12   55.3    82    1.5    11     3.6   971.9    0.00 
 147    6:50   0.24   56.8    78    2.9     7     5.3   971.9    0.00 
 147    7:00   0.30   57.4    75    4.3    31     8.4   971.9    0.00 
 147    7:10   0.35   60.2    68    3.1    13     8.3   971.9    0.00 
 147    7:20   0.44   62.4    63    2.1   353     4.7   971.9    0.00 
 147    7:30   0.52   63.9    60    3.3   317     6.4   971.9    0.00 
 147    7:40   0.45   63.5    61    2.8   288     6.7   971.9    0.00 
 147    7:50   0.52   63.8    60    2.7   295     5.4   971.9    0.00 
 147    8:00   0.53   64.1    59    2.3    20     4.7   971.9    0.00 
 147    8:10   0.60   64.0    58    2.4    47     5.4   971.6    0.00 
 147    8:20   0.62   65.4    55    3.6    16     8.5   971.6    0.00 
 147    8:30   0.66   63.8    58    2.9    44     6.7   971.6    0.00 
 147    8:40   0.69   65.4    55    3.1   341     6.4   971.6    0.00 
 147    8:50   0.72   67.3    53    2.9   314     7.2   971.2    0.00 
 147    9:00   0.76   69.6    50    3.2   304     8.1   971.2    0.00 
 147    9:10   0.59   69.6    50    3.4   286     7.7   971.2    0.00 
 147    9:20   0.68   68.4    52    3.1   292     7.3   971.2    0.00 
 147    9:30   0.81   69.8    50    3.9   282     9.9   970.9    0.00 
 147    9:40   0.84   69.5    50    3.4   288     9.1   970.9    0.00 
 147    9:50   0.85   70.2    49    3.6   290     7.8   970.9    0.00 
 147   10:00   0.87   70.3    49    3.7   287    10.4   970.9    0.00 
 147   10:10   0.89   71.7    47    4.2   292    11.0   970.9    0.00 
 147   10:20   0.90   71.5    47    4.0   301     9.1   970.9    0.00 
 147   10:30   0.91   72.2    46    4.0   291     9.6   970.5    0.00 
 147   10:40   0.93   72.2    46    3.3   299     8.5   970.5    0.00 
 147   10:50   0.93   72.6    45    3.4   294     8.9   970.5    0.00 
 147   11:00   0.94   73.0    45    3.2   294     8.0   970.5    0.00 
 147   11:10   0.95   74.0    43    4.2   292     8.2   970.5    0.00 
 147   11:20   0.96   74.5    43    3.4   295     6.9   970.2    0.00 
 147   11:30   0.96   74.2    43    3.8   312     8.0   970.2    0.00 
 147   11:40   0.96   73.1    45    3.3   298     7.5   970.2    0.00 
 147   11:50   0.96   73.4    44    3.6   302     8.3   970.2    0.00 
 147   12:00   0.97   74.1    44    4.6   301     8.8   969.9    0.00 
 147   12:10   0.96   74.4    43    3.6   300     8.0   969.9    0.00 
 147   12:20   0.96   74.4    44    3.5   298     9.5   969.9    0.00 
 147   12:30   0.96   75.1    43    4.0   292     8.4   969.9    0.00 
 147   12:40   0.95   74.8    44    4.3   313     8.7   969.5    0.00 
 147   12:50   0.91   75.5    43    4.1   294     8.3   969.5    0.00 
 147   13:00   0.93   75.3    44    3.6   298     7.8   969.5    0.00 
 147   13:10   0.92   75.7    43    4.0   304     9.6   969.5    0.00 
 147   13:20   0.91   76.6    42    2.7   315     7.9   969.5    0.00 
 147   13:30   0.89   75.7    43    3.0   321     7.5   969.2    0.00 
 147   13:40   0.88   77.1    41    2.3   294     7.1   969.2    0.00 
 147   13:50   0.86   77.1    41    3.6   298     9.0   969.2    0.00 
 147   14:00   0.84   77.0    41    3.2   291     8.8   969.2    0.00 
 147   14:10   0.82   77.0    41    3.3   296     8.5   968.8    0.00 
 147   14:20   0.80   77.1    41    2.6   300     7.5   968.8    0.00 
 147   14:30   0.78   77.9    40    3.3   288     9.2   968.8    0.00 
 147   14:40   0.75   77.2    42    4.1   312     9.1   968.8    0.00 
 147   14:50   0.72   76.5    42    3.1   306     9.6   968.5    0.00 
 147   15:00   0.70   77.3    42    3.0   304     7.7   968.5    0.00 
 147   15:10   0.67   77.7    41    2.9   307     8.0   968.5    0.00 
 147   15:20   0.64   76.3    43    4.0   312     8.4   968.5    0.00 
 147   15:30   0.61   75.7    43    3.2   301     7.8   968.5    0.00 
 147   15:40   0.58   76.0    43    3.5   285     9.3   968.5    0.00 
 147   15:50   0.55   75.6    43    3.5   295     8.7   968.2    0.00 
 147   16:00   0.51   74.6    44    3.6   297     7.7   968.2    0.00 
 147   16:10   0.48   74.2    44    2.5   294     8.0   968.2    0.00 
 147   16:20   0.45   75.0    43    3.3   296     8.3   967.8    0.00 
 147   16:30   0.42   74.2    44    4.0   293     8.2   967.8    0.00 
 147   16:40   0.38   73.5    45    2.8   301     6.4   967.8    0.00 
 147   16:50   0.35   74.5    43    3.0   299     7.3   967.5    0.00 
 147   17:00   0.31   74.2    44    2.4   296     6.2   967.5    0.00 
 147   17:10   0.28   74.5    43    2.8   295     6.3   967.5    0.00 
 147   17:20   0.24   73.4    44    3.1   299     7.8   967.5    0.00 
 147   17:30   0.21   71.9    46    2.5   294     6.1   967.5    0.00 
 147   17:40   0.18   69.9    49    2.3   292     6.4   967.5    0.00 
 147   17:50   0.15   68.7    51    1.8   296     6.9   967.5    0.00 
 147   18:00   0.07   67.9    52    2.7   291     6.4   967.5    0.00 
 147   18:10   0.04   66.9    53    2.1   299     5.9   967.5    0.00 
 147   18:20   0.04   66.2    55    2.3   290     5.7   967.8    0.00 
 147   18:30   0.03   65.2    57    1.2   300     4.2   967.8    0.00 
 147   18:40   0.02   64.5    58    1.5   291     4.1   967.8    0.00 
 147   18:50   0.01   64.1    59    1.3   275     3.7   967.8    0.00 
 147   19:00   0.01   63.7    59    1.6   264     3.9   968.2    0.00 
 147   19:10   0.00   62.7    61    1.2   256     2.4   968.2    0.00 
 147   19:20   0.00   62.2    62    2.3   244     4.1   968.2    0.00 
 147   19:30   0.00   61.7    63    1.8   235     2.8   968.2    0.00 
 147   19:40   0.00   61.1    64    1.9   224     2.9   968.2    0.00 
 147   19:50   0.00   60.4    65    2.5   219     3.4   968.2    0.00 
 147   20:00   0.00   59.9    66    1.7   219     2.8   968.2    0.00 
 147   20:10   0.00   59.5    67    1.9   204     3.7   968.2    0.00 
 147   20:20   0.00   59.5    67    2.2   190     3.7   968.2    0.00 
 147   20:30   0.00   59.3    68    2.2   166     3.7   968.2    0.00 
 147   20:40   0.00   58.7    69    1.5   158     2.6   968.5    0.00 
 147   20:50   0.00   59.2    68    0.5   214     1.4   968.5    0.00 
 147   21:00   0.00   59.1    68    0.9   271     1.9   968.5    0.00 

Return to Stunt Ranch Reserve graphs page.


Western Regional Climate Center,wrcc@dri.edu